Time;durP1;ratioP1;P1;durP2;ratioP2;P2;SDS_P1;SDS_P2;PMS_P1;PMS_P2;Temp;Humidity;BMP_temperature;BMP_pressure;BME280_temperature;BME280_humidity;BME280_pressure;Samples;Min_cycle;Max_cycle;Signal;HPM_P1;HPM_P2
2023/03/01 00:02:04;;;;;;;19.20;13.87;;;;;;;;;;5059744;28;20237;-51
2023/03/01 00:04:31;;;;;;;22.33;16.53;;;;;;;;;;5061791;28;20545;-51
2023/03/01 00:06:57;;;;;;;19.30;14.70;;;;;;;;;;5061743;28;20867;-51
2023/03/01 00:09:24;;;;;;;22.90;17.20;;;;;;;;;;5065387;28;20230;-50
2023/03/01 00:11:52;;;;;;;23.37;16.90;;;;;;;;;;5060285;28;20246;-52
2023/03/01 00:14:18;;;;;;;23.40;16.03;;;;;;;;;;5062673;28;20238;-51
2023/03/01 00:16:46;;;;;;;24.37;16.37;;;;;;;;;;5062787;28;20284;-52
2023/03/01 00:19:13;;;;;;;23.67;15.47;;;;;;;;;;5062884;28;20281;-51
2023/03/01 00:21:40;;;;;;;22.40;15.23;;;;;;;;;;5062764;28;20233;-52
2023/03/01 00:24:07;;;;;;;19.80;14.77;;;;;;;;;;5065817;28;20234;-51
2023/03/01 00:26:33;;;;;;;18.63;14.60;;;;;;;;;;5064691;28;20308;-52
2023/03/01 00:29:01;;;;;;;17.97;14.23;;;;;;;;;;5061182;28;20281;-51
2023/03/01 00:31:30;;;;;;;19.10;14.47;;;;;;;;;;5064391;28;20238;-56
2023/03/01 00:33:57;;;;;;;20.10;15.33;;;;;;;;;;5062846;28;20305;-51
2023/03/01 00:36:25;;;;;;;22.43;14.37;;;;;;;;;;5059828;28;20231;-51
2023/03/01 00:38:52;;;;;;;21.37;16.30;;;;;;;;;;5063291;28;20241;-51
2023/03/01 00:41:19;;;;;;;22.07;14.27;;;;;;;;;;5065138;28;21600;-50
2023/03/01 00:43:46;;;;;;;24.60;15.43;;;;;;;;;;5065395;28;20284;-51
2023/03/01 00:46:15;;;;;;;19.60;14.40;;;;;;;;;;5061962;28;20651;-51
2023/03/01 00:48:42;;;;;;;17.70;14.23;;;;;;;;;;5062682;28;20693;-53
2023/03/01 00:51:12;;;;;;;17.13;13.07;;;;;;;;;;5065327;28;20238;-51
2023/03/01 00:53:39;;;;;;;26.33;17.07;;;;;;;;;;5063170;28;20237;-51
2023/03/01 00:56:07;;;;;;;20.40;14.40;;;;;;;;;;5062842;28;20225;-52
2023/03/01 00:58:33;;;;;;;19.43;14.20;;;;;;;;;;5060870;28;20309;-51
2023/03/01 01:01:00;;;;;;;21.67;14.77;;;;;;;;;;5060188;28;20245;-53
2023/03/01 01:03:28;;;;;;;21.23;15.03;;;;;;;;;;5063856;28;20252;-51
2023/03/01 01:05:55;;;;;;;22.57;14.63;;;;;;;;;;5063700;28;20265;-51
2023/03/01 01:08:22;;;;;;;20.77;14.23;;;;;;;;;;5067057;28;20238;-51
2023/03/01 01:10:48;;;;;;;18.30;14.50;;;;;;;;;;5060693;28;20234;-51
2023/03/01 01:13:15;;;;;;;20.77;15.17;;;;;;;;;;5052798;28;20280;-51
2023/03/01 01:15:42;;;;;;;19.57;13.97;;;;;;;;;;5053209;28;20233;-52
2023/03/01 01:18:08;;;;;;;20.33;14.43;;;;;;;;;;5057131;28;20234;-51
2023/03/01 01:20:37;;;;;;;21.33;14.17;;;;;;;;;;5056100;28;20237;-52
2023/03/01 01:23:06;;;;;;;17.57;12.87;;;;;;;;;;5062861;28;20302;-52
2023/03/01 01:25:35;;;;;;;17.67;12.37;;;;;;;;;;5057435;28;20230;-52
2023/03/01 01:28:01;;;;;;;21.13;13.73;;;;;;;;;;5062090;28;20237;-52
2023/03/01 01:30:28;;;;;;;21.73;13.23;;;;;;;;;;5064513;28;20253;-52
2023/03/01 01:32:55;;;;;;;21.77;13.63;;;;;;;;;;5056198;28;20264;-52
2023/03/01 01:35:21;;;;;;;18.20;14.57;;;;;;;;;;5057634;28;20389;-52
2023/03/01 01:37:49;;;;;;;17.97;14.00;;;;;;;;;;5063492;28;20237;-51
2023/03/01 01:40:16;;;;;;;19.00;14.57;;;;;;;;;;5060981;28;20233;-51
2023/03/01 01:42:43;;;;;;;19.83;14.03;;;;;;;;;;5053572;28;20229;-51
2023/03/01 01:45:30;;;;;;;18.77;13.77;;;;;;;;;;5064000;28;20234;-51
2023/03/01 01:47:59;;;;;;;15.33;12.83;;;;;;;;;;5054189;28;20233;-51
2023/03/01 01:50:26;;;;;;;25.27;14.03;;;;;;;;;;5060002;28;20245;-51
2023/03/01 01:52:55;;;;;;;20.73;14.10;;;;;;;;;;5058044;28;20284;-51
2023/03/01 01:55:23;;;;;;;18.37;13.47;;;;;;;;;;5064040;28;20259;-51
2023/03/01 01:57:52;;;;;;;17.33;12.63;;;;;;;;;;5061416;28;20233;-51
2023/03/01 02:00:20;;;;;;;16.13;12.20;;;;;;;;;;5058107;28;20720;-51
2023/03/01 02:02:48;;;;;;;20.43;13.07;;;;;;;;;;5059051;28;20233;-51
2023/03/01 02:05:19;;;;;;;22.87;13.73;;;;;;;;;;5057052;28;20332;-51
2023/03/01 02:07:46;;;;;;;18.27;13.27;;;;;;;;;;5060624;28;20234;-51
2023/03/01 02:10:14;;;;;;;18.00;13.77;;;;;;;;;;5062104;28;20245;-51
2023/03/01 02:12:40;;;;;;;18.70;14.00;;;;;;;;;;5060344;28;20234;-51
2023/03/01 02:15:07;;;;;;;16.93;13.80;;;;;;;;;;5060444;28;20258;-51
2023/03/01 02:17:36;;;;;;;18.43;13.60;;;;;;;;;;5054253;28;20279;-51
2023/03/01 02:20:11;;;;;;;21.20;14.20;;;;;;;;;;5057318;28;20226;-51
2023/03/01 02:22:39;;;;;;;19.47;14.50;;;;;;;;;;5046248;28;20287;-53
2023/03/01 02:25:11;;;;;;;18.33;13.37;;;;;;;;;;5059639;28;20269;-51
2023/03/01 02:27:42;;;;;;;16.83;14.97;;;;;;;;;;5058080;28;20258;-52
2023/03/01 02:30:12;;;;;;;19.13;14.13;;;;;;;;;;5065023;28;20234;-52
2023/03/01 02:32:38;;;;;;;16.23;13.80;;;;;;;;;;5065645;28;20246;-52
2023/03/01 02:35:06;;;;;;;20.93;15.20;;;;;;;;;;5067656;28;20264;-51
2023/03/01 02:37:32;;;;;;;17.73;13.53;;;;;;;;;;5057578;28;20233;-51
2023/03/01 02:40:00;;;;;;;18.63;13.30;;;;;;;;;;5051525;28;20241;-51
2023/03/01 02:42:29;;;;;;;16.40;12.80;;;;;;;;;;5062240;28;20246;-51
2023/03/01 02:44:55;;;;;;;17.97;14.03;;;;;;;;;;5057600;28;20241;-52
2023/03/01 02:47:24;;;;;;;22.53;14.77;;;;;;;;;;5059734;28;20303;-52
2023/03/01 02:49:50;;;;;;;20.20;13.87;;;;;;;;;;5064505;28;20345;-51
2023/03/01 02:52:37;;;;;;;20.53;14.90;;;;;;;;;;5059416;28;20734;-51
2023/03/01 02:55:06;;;;;;;21.90;14.63;;;;;;;;;;5049511;28;20233;-52
2023/03/01 02:57:34;;;;;;;18.07;11.90;;;;;;;;;;5059580;28;20234;-51
2023/03/01 03:00:06;;;;;;;16.17;12.10;;;;;;;;;;5063978;28;20774;-51
2023/03/01 03:02:37;;;;;;;16.20;12.47;;;;;;;;;;5070034;28;20325;-52
2023/03/01 03:05:05;;;;;;;16.73;12.43;;;;;;;;;;5065749;28;20232;-51
2023/03/01 03:07:33;;;;;;;18.10;13.17;;;;;;;;;;5076821;28;20264;-52
2023/03/01 03:09:59;;;;;;;16.70;13.47;;;;;;;;;;5067957;28;20305;-51
2023/03/01 03:12:26;;;;;;;15.47;12.70;;;;;;;;;;5067462;28;20732;-51
2023/03/01 03:14:52;;;;;;;16.37;12.23;;;;;;;;;;5062467;28;20944;-51
2023/03/01 03:17:19;;;;;;;18.67;12.50;;;;;;;;;;5055968;28;20234;-51
2023/03/01 03:19:47;;;;;;;16.60;12.87;;;;;;;;;;5054803;28;20233;-50
2023/03/01 03:22:14;;;;;;;19.27;13.53;;;;;;;;;;5054659;28;20783;-51
2023/03/01 03:24:40;;;;;;;17.80;14.77;;;;;;;;;;5059100;28;20246;-51
2023/03/01 03:27:07;;;;;;;19.10;13.87;;;;;;;;;;5062537;28;20252;-51
2023/03/01 03:29:34;;;;;;;17.83;14.97;;;;;;;;;;5066596;28;20233;-52
2023/03/01 03:32:00;;;;;;;19.03;13.47;;;;;;;;;;5065246;27;20284;-56
2023/03/01 03:34:27;;;;;;;19.00;13.33;;;;;;;;;;5068281;28;20225;-51
2023/03/01 03:36:59;;;;;;;25.50;15.37;;;;;;;;;;5063796;28;20729;-51
2023/03/01 03:39:26;;;;;;;17.17;14.47;;;;;;;;;;5062747;28;21021;-52
2023/03/01 03:41:52;;;;;;;19.47;15.00;;;;;;;;;;5065054;28;20230;-52
2023/03/01 03:44:19;;;;;;;19.33;15.07;;;;;;;;;;5056898;28;20238;-51
2023/03/01 03:46:45;;;;;;;18.13;13.87;;;;;;;;;;5057658;28;20736;-51
2023/03/01 03:49:12;;;;;;;16.50;14.47;;;;;;;;;;5060662;28;20237;-51
2023/03/01 03:51:39;;;;;;;21.80;14.77;;;;;;;;;;5061737;28;20233;-52
2023/03/01 03:54:07;;;;;;;17.63;14.63;;;;;;;;;;5060042;28;20233;-51
2023/03/01 03:56:33;;;;;;;17.70;12.43;;;;;;;;;;5058959;28;20242;-51
2023/03/01 03:59:00;;;;;;;17.57;13.43;;;;;;;;;;5058737;28;20233;-51
2023/03/01 04:01:26;;;;;;;24.53;14.37;;;;;;;;;;5056635;28;20230;-51
2023/03/01 04:03:54;;;;;;;20.07;13.73;;;;;;;;;;5060122;28;20237;-50
2023/03/01 04:06:21;;;;;;;17.97;13.53;;;;;;;;;;5050938;28;20305;-51
2023/03/01 04:08:50;;;;;;;17.70;13.10;;;;;;;;;;5058431;28;20260;-51
2023/03/01 04:14:04;;;;;;;18.33;13.50;;;;;;;;;;5061577;28;20234;-52
2023/03/01 04:16:30;;;;;;;17.07;12.80;;;;;;;;;;5059263;28;20777;-51
2023/03/01 04:18:59;;;;;;;19.97;14.10;;;;;;;;;;5065678;28;20738;-51
2023/03/01 04:21:26;;;;;;;18.67;13.87;;;;;;;;;;5068078;28;20233;-51
2023/03/01 04:23:55;;;;;;;20.13;14.27;;;;;;;;;;5058956;28;20229;-51
2023/03/01 04:26:23;;;;;;;17.43;12.57;;;;;;;;;;5062319;28;20233;-52
2023/03/01 04:28:50;;;;;;;21.70;15.00;;;;;;;;;;5065580;28;20309;-52
2023/03/01 04:31:21;;;;;;;19.00;13.47;;;;;;;;;;5067183;28;20249;-51
2023/03/01 04:33:48;;;;;;;20.77;13.13;;;;;;;;;;5058984;28;20229;-51
2023/03/01 04:36:16;;;;;;;23.80;14.50;;;;;;;;;;5059663;28;20240;-50
2023/03/01 04:38:47;;;;;;;18.90;13.50;;;;;;;;;;5055167;28;20229;-55
2023/03/01 04:41:14;;;;;;;17.27;12.90;;;;;;;;;;5058511;28;20260;-52
2023/03/01 04:43:42;;;;;;;18.97;13.10;;;;;;;;;;5057029;28;20719;-51
2023/03/01 04:46:11;;;;;;;16.50;13.90;;;;;;;;;;5063704;28;20333;-52
2023/03/01 04:48:39;;;;;;;19.10;13.73;;;;;;;;;;5069138;28;20238;-52
2023/03/01 04:51:05;;;;;;;20.50;13.50;;;;;;;;;;5070579;28;20230;-51
2023/03/01 04:53:33;;;;;;;18.30;13.03;;;;;;;;;;5069175;28;20249;-53
2023/03/01 04:56:00;;;;;;;16.03;12.70;;;;;;;;;;5059021;28;22369;-52
2023/03/01 04:58:28;;;;;;;19.20;13.87;;;;;;;;;;5056166;28;20865;-51
2023/03/01 05:00:56;;;;;;;21.30;14.83;;;;;;;;;;5058775;28;20319;-52
2023/03/01 05:03:23;;;;;;;21.07;14.33;;;;;;;;;;5055623;28;20244;-52
2023/03/01 05:05:51;;;;;;;32.10;18.97;;;;;;;;;;5058775;28;20672;-52
2023/03/01 05:08:18;;;;;;;32.50;20.90;;;;;;;;;;5058983;28;20370;-58
2023/03/01 05:10:45;;;;;;;37.40;22.20;;;;;;;;;;5063409;28;20229;-52
2023/03/01 05:13:13;;;;;;;33.57;21.50;;;;;;;;;;5056943;28;20259;-52
2023/03/01 05:15:39;;;;;;;31.73;20.23;;;;;;;;;;5059586;28;20229;-52
2023/03/01 05:18:11;;;;;;;34.30;22.00;;;;;;;;;;5062242;28;21124;-52
2023/03/01 05:20:38;;;;;;;39.63;23.73;;;;;;;;;;5061473;28;20299;-56
2023/03/01 05:23:05;;;;;;;38.57;23.87;;;;;;;;;;5053489;28;20242;-52
2023/03/01 05:25:32;;;;;;;34.60;18.50;;;;;;;;;;5062455;28;20237;-51
2023/03/01 05:28:03;;;;;;;26.23;16.90;;;;;;;;;;5057563;28;20312;-51
2023/03/01 05:30:30;;;;;;;26.57;16.93;;;;;;;;;;5060329;28;20288;-52
2023/03/01 05:32:57;;;;;;;24.23;16.40;;;;;;;;;;5061133;28;20237;-53
2023/03/01 05:35:25;;;;;;;21.83;15.57;;;;;;;;;;5065168;28;20290;-56
2023/03/01 05:37:52;;;;;;;20.97;14.73;;;;;;;;;;5064914;28;20318;-52
2023/03/01 05:40:20;;;;;;;19.93;15.23;;;;;;;;;;5064167;28;20263;-61
2023/03/01 05:42:48;;;;;;;20.00;14.20;;;;;;;;;;5067233;28;20237;-54
2023/03/01 05:45:15;;;;;;;17.33;13.47;;;;;;;;;;5052446;28;20249;-54
2023/03/01 05:47:43;;;;;;;17.70;13.17;;;;;;;;;;5084921;28;20234;-57
2023/03/01 05:50:11;;;;;;;18.70;13.00;;;;;;;;;;5073899;28;20249;-52
2023/03/01 05:52:39;;;;;;;18.83;13.13;;;;;;;;;;5071331;28;20280;-52
2023/03/01 05:55:06;;;;;;;17.67;13.03;;;;;;;;;;5071375;28;20277;-53
2023/03/01 05:57:33;;;;;;;17.57;12.63;;;;;;;;;;5070284;28;20230;-58
2023/03/01 06:00:00;;;;;;;18.40;13.80;;;;;;;;;;5068870;28;20288;-57
2023/03/01 06:02:27;;;;;;;17.83;14.00;;;;;;;;;;5059995;28;20266;-54
2023/03/01 06:04:53;;;;;;;19.00;13.00;;;;;;;;;;5061598;28;20308;-52
2023/03/01 06:07:20;;;;;;;17.23;13.77;;;;;;;;;;5063315;28;20233;-52
2023/03/01 06:09:48;;;;;;;18.03;13.53;;;;;;;;;;5065994;28;20237;-51
2023/03/01 06:12:14;;;;;;;20.40;14.53;;;;;;;;;;5070776;28;20693;-55
2023/03/01 06:14:41;;;;;;;17.33;14.10;;;;;;;;;;5065363;28;20229;-52
2023/03/01 06:17:08;;;;;;;20.53;13.47;;;;;;;;;;5067395;28;20234;-57
2023/03/01 06:19:34;;;;;;;19.80;14.27;;;;;;;;;;5065693;28;20234;-52
2023/03/01 06:22:01;;;;;;;18.97;12.97;;;;;;;;;;5073282;28;21168;-51
2023/03/01 06:24:28;;;;;;;18.30;13.47;;;;;;;;;;5074609;28;20268;-59
2023/03/01 06:26:56;;;;;;;17.37;13.63;;;;;;;;;;5075325;28;20228;-53
2023/03/01 06:29:23;;;;;;;22.73;14.80;;;;;;;;;;5077823;28;20252;-52
2023/03/01 06:31:49;;;;;;;17.87;12.40;;;;;;;;;;5077005;28;20860;-51
2023/03/01 06:34:16;;;;;;;18.13;13.67;;;;;;;;;;5066946;28;20270;-52
2023/03/01 06:36:43;;;;;;;17.40;13.23;;;;;;;;;;5066367;28;20691;-53
2023/03/01 06:39:09;;;;;;;20.67;12.93;;;;;;;;;;5067695;28;20280;-56
2023/03/01 06:41:36;;;;;;;18.07;13.47;;;;;;;;;;5069687;28;20262;-51
2023/03/01 06:44:04;;;;;;;17.30;13.83;;;;;;;;;;5072464;28;20229;-52
2023/03/01 06:46:31;;;;;;;20.03;13.57;;;;;;;;;;5074077;28;20229;-53
2023/03/01 06:48:57;;;;;;;17.77;14.33;;;;;;;;;;5072310;28;20242;-52
2023/03/01 06:51:25;;;;;;;27.47;15.03;;;;;;;;;;5059379;28;20234;-66
2023/03/01 06:53:51;;;;;;;23.67;14.03;;;;;;;;;;5077000;28;20298;-59
2023/03/01 06:56:18;;;;;;;22.10;14.93;;;;;;;;;;5078153;28;20268;-54
2023/03/01 06:58:44;;;;;;;19.13;13.97;;;;;;;;;;5075646;28;20225;-61
2023/03/01 07:01:12;;;;;;;20.40;14.67;;;;;;;;;;5072777;28;20299;-54
2023/03/01 07:03:38;;;;;;;22.57;14.47;;;;;;;;;;5074348;28;20258;-52
2023/03/01 07:06:05;;;;;;;18.97;15.20;;;;;;;;;;5074883;28;20253;-59
2023/03/01 07:08:32;;;;;;;19.73;15.13;;;;;;;;;;5072837;28;20243;-53
2023/03/01 07:10:58;;;;;;;20.07;14.60;;;;;;;;;;5075452;28;20272;-53
2023/03/01 07:13:25;;;;;;;18.57;13.10;;;;;;;;;;5078809;28;20231;-56
2023/03/01 07:15:52;;;;;;;16.60;13.83;;;;;;;;;;5074142;28;20233;-51
2023/03/01 07:18:20;;;;;;;15.77;14.07;;;;;;;;;;5071050;28;20324;-54
2023/03/01 07:20:46;;;;;;;21.50;13.60;;;;;;;;;;5074647;28;20724;-52
2023/03/01 07:23:12;;;;;;;17.87;14.13;;;;;;;;;;5068694;28;20329;-56
2023/03/01 07:25:39;;;;;;;17.37;13.67;;;;;;;;;;5074420;28;20353;-59
2023/03/01 07:28:06;;;;;;;23.97;15.00;;;;;;;;;;5073943;28;20279;-59
2023/03/01 07:30:32;;;;;;;21.93;15.50;;;;;;;;;;5074859;28;20663;-51
2023/03/01 07:32:59;;;;;;;16.23;13.67;;;;;;;;;;5070613;28;20262;-54
2023/03/01 07:35:27;;;;;;;17.17;14.03;;;;;;;;;;5070405;28;20234;-57
2023/03/01 07:37:54;;;;;;;21.47;15.37;;;;;;;;;;5075058;28;20231;-58
2023/03/01 07:40:21;;;;;;;20.50;14.13;;;;;;;;;;5073567;28;20713;-52
2023/03/01 07:42:47;;;;;;;21.13;15.17;;;;;;;;;;5056342;28;20229;-53
2023/03/01 07:45:14;;;;;;;19.13;15.10;;;;;;;;;;5068709;28;20234;-52
2023/03/01 07:47:40;;;;;;;19.23;15.47;;;;;;;;;;5065824;28;20229;-56
2023/03/01 07:50:08;;;;;;;19.20;14.67;;;;;;;;;;5064395;28;20233;-54
2023/03/01 07:52:36;;;;;;;19.80;13.90;;;;;;;;;;5064602;28;20264;-52
2023/03/01 07:55:02;;;;;;;20.00;13.47;;;;;;;;;;5066192;28;20834;-55
2023/03/01 07:57:29;;;;;;;20.77;14.10;;;;;;;;;;5064002;28;20310;-56
2023/03/01 07:59:56;;;;;;;18.97;12.63;;;;;;;;;;5066927;27;20277;-54
2023/03/01 08:02:22;;;;;;;19.37;14.27;;;;;;;;;;5066454;28;21272;-53
2023/03/01 08:04:49;;;;;;;20.27;13.00;;;;;;;;;;5071095;28;20325;-54
2023/03/01 08:07:15;;;;;;;19.10;13.67;;;;;;;;;;5067601;28;20233;-55
2023/03/01 08:09:43;;;;;;;18.60;13.30;;;;;;;;;;5065323;28;20709;-51
2023/03/01 08:12:10;;;;;;;17.80;12.20;;;;;;;;;;5071355;28;20238;-52
2023/03/01 08:14:36;;;;;;;16.93;12.13;;;;;;;;;;5066947;28;20233;-53
2023/03/01 08:17:03;;;;;;;17.43;12.50;;;;;;;;;;5070522;28;20255;-53
2023/03/01 08:19:30;;;;;;;15.50;11.83;;;;;;;;;;5070966;28;20226;-56
2023/03/01 08:21:58;;;;;;;16.90;12.10;;;;;;;;;;5069311;28;20303;-54
2023/03/01 08:24:25;;;;;;;14.70;10.87;;;;;;;;;;5065472;28;20234;-53
2023/03/01 08:26:52;;;;;;;13.50;9.93;;;;;;;;;;5068754;28;20252;-52
2023/03/01 08:29:19;;;;;;;12.67;9.40;;;;;;;;;;5069981;28;20254;-56
2023/03/01 08:31:45;;;;;;;13.33;7.83;;;;;;;;;;5069278;28;20311;-55
2023/03/01 08:34:13;;;;;;;14.53;8.93;;;;;;;;;;5065789;28;20237;-59
2023/03/01 08:36:41;;;;;;;11.47;8.53;;;;;;;;;;5071349;28;20294;-51
2023/03/01 08:39:08;;;;;;;14.10;10.80;;;;;;;;;;5066693;28;20227;-57
2023/03/01 08:41:35;;;;;;;10.83;8.53;;;;;;;;;;5065560;28;20780;-52
2023/03/01 08:44:03;;;;;;;13.77;7.83;;;;;;;;;;5055597;28;20329;-53
2023/03/01 08:46:31;;;;;;;10.70;7.40;;;;;;;;;;5063441;28;20782;-54
2023/03/01 08:48:57;;;;;;;10.47;9.00;;;;;;;;;;5069723;28;20261;-55
2023/03/01 08:51:24;;;;;;;10.67;8.93;;;;;;;;;;5069618;28;20313;-52
2023/03/01 08:53:51;;;;;;;9.70;7.87;;;;;;;;;;5071454;28;20231;-51
2023/03/01 08:56:19;;;;;;;11.33;7.70;;;;;;;;;;5068660;28;20238;-56
2023/03/01 08:58:46;;;;;;;10.13;7.30;;;;;;;;;;5062717;28;20736;-52
2023/03/01 09:01:16;;;;;;;12.93;8.30;;;;;;;;;;5072595;28;20705;-52
2023/03/01 09:03:43;;;;;;;16.17;9.00;;;;;;;;;;5071012;28;20230;-52
2023/03/01 09:06:10;;;;;;;11.40;7.63;;;;;;;;;;5070654;28;20263;-53
2023/03/01 09:08:37;;;;;;;9.43;7.17;;;;;;;;;;5069179;28;20227;-52
2023/03/01 09:11:03;;;;;;;9.63;7.10;;;;;;;;;;5065534;28;20233;-53
2023/03/01 09:13:30;;;;;;;8.20;5.97;;;;;;;;;;5066531;28;20245;-56
2023/03/01 09:15:57;;;;;;;6.30;5.53;;;;;;;;;;5066240;28;20227;-52
2023/03/01 09:18:25;;;;;;;7.30;5.67;;;;;;;;;;5065702;28;20226;-52
2023/03/01 09:20:54;;;;;;;8.67;5.10;;;;;;;;;;5065265;28;20227;-53
2023/03/01 09:23:21;;;;;;;6.57;5.03;;;;;;;;;;5068084;28;20239;-56
2023/03/01 09:25:47;;;;;;;7.20;4.27;;;;;;;;;;5068388;28;20227;-51
2023/03/01 09:28:14;;;;;;;7.10;4.90;;;;;;;;;;5065123;28;20292;-52
2023/03/01 09:30:40;;;;;;;6.63;4.50;;;;;;;;;;5067270;28;20258;-54
2023/03/01 09:33:07;;;;;;;5.23;4.37;;;;;;;;;;5060770;28;20242;-54
2023/03/01 09:35:35;;;;;;;5.50;4.57;;;;;;;;;;5062896;28;20231;-52
2023/03/01 09:38:01;;;;;;;6.27;5.10;;;;;;;;;;5063976;28;20245;-52
2023/03/01 09:40:29;;;;;;;5.43;4.70;;;;;;;;;;5065032;28;20239;-50
2023/03/01 09:42:56;;;;;;;8.13;5.10;;;;;;;;;;5061219;28;20242;-52
2023/03/01 09:45:26;;;;;;;5.80;3.87;;;;;;;;;;5062015;28;20233;-52
2023/03/01 09:47:53;;;;;;;6.57;4.57;;;;;;;;;;5058423;28;20608;-52
2023/03/01 09:50:20;;;;;;;6.37;4.97;;;;;;;;;;5061346;28;20232;-52
2023/03/01 09:52:50;;;;;;;5.93;5.03;;;;;;;;;;5065716;28;20235;-51
2023/03/01 09:55:18;;;;;;;10.30;5.43;;;;;;;;;;5067320;28;20258;-52
2023/03/01 09:57:48;;;;;;;6.63;4.43;;;;;;;;;;5064506;28;20240;-51
2023/03/01 10:00:19;;;;;;;5.07;4.13;;;;;;;;;;5067490;28;20652;-57
2023/03/01 10:02:48;;;;;;;6.83;4.63;;;;;;;;;;5061877;28;20237;-52
2023/03/01 10:05:28;;;;;;;5.33;3.67;;;;;;;;;;5066846;28;20753;-51
2023/03/01 10:08:03;;;;;;;6.20;4.17;;;;;;;;;;5062423;28;20219;-52
2023/03/01 10:10:33;;;;;;;4.80;3.70;;;;;;;;;;5066382;28;20238;-51
2023/03/01 10:13:00;;;;;;;5.90;4.40;;;;;;;;;;5067198;28;20900;-51
2023/03/01 10:15:34;;;;;;;4.37;3.77;;;;;;;;;;5063940;28;20671;-51
2023/03/01 10:18:02;;;;;;;5.47;4.27;;;;;;;;;;5066542;28;20236;-52
2023/03/01 10:20:32;;;;;;;6.10;4.07;;;;;;;;;;5062009;28;20262;-51
2023/03/01 10:23:01;;;;;;;4.23;3.80;;;;;;;;;;5066054;28;20235;-52
2023/03/01 10:25:37;;;;;;;7.93;4.60;;;;;;;;;;5061182;28;20941;-51
2023/03/01 10:28:11;;;;;;;10.80;5.57;;;;;;;;;;5064288;28;20709;-52
2023/03/01 10:30:39;;;;;;;6.17;5.00;;;;;;;;;;5058164;28;20254;-51
2023/03/01 10:33:09;;;;;;;7.07;5.10;;;;;;;;;;5064970;28;20323;-52
2023/03/01 10:35:36;;;;;;;8.13;5.23;;;;;;;;;;5059382;28;20260;-51
2023/03/01 10:38:08;;;;;;;6.30;5.23;;;;;;;;;;5063385;28;20328;-51
2023/03/01 10:40:35;;;;;;;4.60;4.17;;;;;;;;;;5063083;28;20235;-53
2023/03/01 10:43:03;;;;;;;5.87;5.17;;;;;;;;;;5062756;28;20307;-52
2023/03/01 10:45:34;;;;;;;6.63;4.03;;;;;;;;;;5061117;28;20223;-52
2023/03/01 10:48:04;;;;;;;6.63;4.50;;;;;;;;;;5061507;28;20273;-52
2023/03/01 10:50:31;;;;;;;4.77;4.17;;;;;;;;;;5058383;28;20231;-53
2023/03/01 10:52:59;;;;;;;7.97;4.90;;;;;;;;;;5065302;28;20459;-52
2023/03/01 10:55:28;;;;;;;8.00;3.80;;;;;;;;;;5060826;28;20236;-52
2023/03/01 10:58:07;;;;;;;4.90;4.17;;;;;;;;;;5059709;28;20787;-52
2023/03/01 11:00:33;;;;;;;6.43;4.37;;;;;;;;;;5059004;28;20716;-52
2023/03/01 11:03:04;;;;;;;6.40;4.27;;;;;;;;;;5062645;28;20237;-52
2023/03/01 11:05:33;;;;;;;5.37;4.30;;;;;;;;;;5065241;28;20284;-51
2023/03/01 11:08:00;;;;;;;5.70;4.57;;;;;;;;;;5060467;28;20262;-51
2023/03/01 11:10:29;;;;;;;4.60;4.10;;;;;;;;;;5063768;28;20233;-56
2023/03/01 11:13:06;;;;;;;6.33;4.07;;;;;;;;;;5071813;28;20241;-52
2023/03/01 11:15:32;;;;;;;5.93;4.37;;;;;;;;;;5064577;28;20233;-53
2023/03/01 11:17:59;;;;;;;4.43;3.80;;;;;;;;;;5063001;28;20242;-53
2023/03/01 11:20:30;;;;;;;5.70;4.23;;;;;;;;;;5056184;28;20326;-52
2023/03/01 11:22:59;;;;;;;6.13;4.30;;;;;;;;;;5059575;28;20736;-53
2023/03/01 11:25:27;;;;;;;5.97;3.70;;;;;;;;;;5064932;28;20666;-53
2023/03/01 11:27:57;;;;;;;3.50;2.60;;;;;;;;;;5060514;28;20727;-53
2023/03/01 11:30:25;;;;;;;3.87;3.40;;;;;;;;;;5061504;28;20223;-54
2023/03/01 11:32:57;;;;;;;5.67;3.80;;;;;;;;;;5058630;28;20751;-53
2023/03/01 11:35:26;;;;;;;5.87;3.57;;;;;;;;;;5062452;28;20242;-53
2023/03/01 11:37:59;;;;;;;6.43;4.03;;;;;;;;;;5061044;28;20232;-54
2023/03/01 11:40:26;;;;;;;5.03;3.43;;;;;;;;;;5058064;28;20238;-52
2023/03/01 11:43:00;;;;;;;5.67;3.23;;;;;;;;;;5055838;28;20235;-51
2023/03/01 11:45:30;;;;;;;5.73;4.60;;;;;;;;;;5058529;28;20227;-51
2023/03/01 11:48:07;;;;;;;4.37;3.07;;;;;;;;;;5055406;28;20322;-51
2023/03/01 11:50:36;;;;;;;5.93;3.70;;;;;;;;;;5058867;28;20246;-51
2023/03/01 11:53:12;;;;;;;5.60;2.93;;;;;;;;;;5056240;28;20235;-51
2023/03/01 11:55:55;;;;;;;4.27;3.47;;;;;;;;;;5054686;28;20223;-52
2023/03/01 11:58:39;;;;;;;5.73;3.63;;;;;;;;;;5060111;28;20219;-52
2023/03/01 12:01:13;;;;;;;6.03;2.83;;;;;;;;;;5056078;28;20310;-52
2023/03/01 12:03:50;;;;;;;3.47;3.17;;;;;;;;;;5060417;28;20234;-51
2023/03/01 12:06:25;;;;;;;3.63;2.97;;;;;;;;;;5054256;28;20565;-52
2023/03/01 12:08:58;;;;;;;5.47;3.33;;;;;;;;;;5059586;28;20303;-52
2023/03/01 12:11:28;;;;;;;4.00;3.00;;;;;;;;;;5061270;28;20321;-52
2023/03/01 12:14:13;;;;;;;3.20;2.90;;;;;;;;;;5060182;28;20322;-58
2023/03/01 12:16:52;;;;;;;3.83;3.30;;;;;;;;;;5066977;28;20223;-53
2023/03/01 12:19:24;;;;;;;4.33;2.80;;;;;;;;;;5058744;28;20230;-52
2023/03/01 12:22:08;;;;;;;5.43;3.40;;;;;;;;;;5058615;28;20326;-51
2023/03/01 12:24:48;;;;;;;3.33;3.03;;;;;;;;;;5060202;28;20223;-52
2023/03/01 12:27:22;;;;;;;6.67;3.47;;;;;;;;;;5059422;28;20241;-52
2023/03/01 12:29:51;;;;;;;4.67;2.97;;;;;;;;;;5061706;28;20257;-52
2023/03/01 12:32:25;;;;;;;3.60;2.70;;;;;;;;;;5055141;28;20727;-51
2023/03/01 12:34:56;;;;;;;5.33;3.77;;;;;;;;;;5057572;28;20309;-52
2023/03/01 12:37:26;;;;;;;8.03;3.37;;;;;;;;;;5054834;28;20322;-55
2023/03/01 12:40:01;;;;;;;3.37;3.07;;;;;;;;;;5063772;28;20315;-52
2023/03/01 12:42:31;;;;;;;3.97;3.47;;;;;;;;;;5061229;28;20712;-51
2023/03/01 12:45:21;;;;;;;3.17;2.87;;;;;;;;;;5055294;28;20236;-51
2023/03/01 12:47:58;;;;;;;7.17;3.40;;;;;;;;;;5061786;28;20229;-51
2023/03/01 12:50:26;;;;;;;3.80;2.90;;;;;;;;;;5062445;28;20318;-52
2023/03/01 12:52:54;;;;;;;6.33;3.00;;;;;;;;;;5061767;28;20603;-51
2023/03/01 12:55:25;;;;;;;2.77;2.53;;;;;;;;;;5062693;28;20223;-52
2023/03/01 12:57:57;;;;;;;3.57;2.73;;;;;;;;;;5061080;28;20231;-53
2023/03/01 13:00:27;;;;;;;3.43;2.57;;;;;;;;;;5061829;28;20223;-53
2023/03/01 13:02:59;;;;;;;3.23;2.93;;;;;;;;;;5061117;28;20265;-53
2023/03/01 13:05:30;;;;;;;3.90;2.57;;;;;;;;;;5059380;28;20234;-53
2023/03/01 13:08:01;;;;;;;5.33;2.97;;;;;;;;;;5056598;28;20329;-53
2023/03/01 13:10:32;;;;;;;2.93;2.47;;;;;;;;;;5059409;28;20228;-51
2023/03/01 13:13:03;;;;;;;4.63;2.30;;;;;;;;;;5059339;28;20239;-52
2023/03/01 13:15:31;;;;;;;4.40;2.07;;;;;;;;;;5060652;28;20231;-52
2023/03/01 13:18:00;;;;;;;2.70;2.43;;;;;;;;;;5062019;28;20231;-55
2023/03/01 13:20:28;;;;;;;4.60;2.50;;;;;;;;;;5061847;28;20255;-53
2023/03/01 13:23:02;;;;;;;4.63;2.53;;;;;;;;;;5061554;28;20324;-52
2023/03/01 13:25:28;;;;;;;4.00;2.80;;;;;;;;;;5061411;28;20223;-52
2023/03/01 13:28:15;;;;;;;3.27;2.53;;;;;;;;;;5059805;28;20239;-51
2023/03/01 13:30:43;;;;;;;3.43;2.27;;;;;;;;;;5061821;28;20237;-52
2023/03/01 13:33:28;;;;;;;2.43;2.20;;;;;;;;;;5060320;28;20239;-51
2023/03/01 13:35:55;;;;;;;3.60;2.00;;;;;;;;;;5062770;28;20234;-51
2023/03/01 13:38:38;;;;;;;2.53;2.33;;;;;;;;;;5064336;28;20235;-52
2023/03/01 13:41:05;;;;;;;2.40;2.20;;;;;;;;;;5060998;28;20235;-52
2023/03/01 13:43:32;;;;;;;2.60;2.30;;;;;;;;;;5053646;28;20604;-51
2023/03/01 13:46:00;;;;;;;3.63;1.87;;;;;;;;;;5061669;28;20308;-51
2023/03/01 13:48:28;;;;;;;2.93;2.20;;;;;;;;;;5058743;28;20735;-51
2023/03/01 13:50:56;;;;;;;7.13;2.60;;;;;;;;;;5057932;28;20232;-51
2023/03/01 13:53:24;;;;;;;2.70;2.10;;;;;;;;;;5050349;28;20310;-51
2023/03/01 13:55:53;;;;;;;3.73;2.67;;;;;;;;;;5057603;28;20318;-52
2023/03/01 13:58:22;;;;;;;4.83;2.07;;;;;;;;;;5059414;28;20722;-51
2023/03/01 14:00:55;;;;;;;3.20;2.40;;;;;;;;;;5059414;28;20234;-53
2023/03/01 14:03:23;;;;;;;2.00;1.90;;;;;;;;;;5053800;28;20738;-51
2023/03/01 14:06:00;;;;;;;4.33;2.10;;;;;;;;;;5066862;28;20234;-51
2023/03/01 14:08:28;;;;;;;2.20;1.87;;;;;;;;;;5067952;28;20298;-52
2023/03/01 14:11:09;;;;;;;5.37;2.70;;;;;;;;;;5064164;28;20231;-53
2023/03/01 14:13:43;;;;;;;3.93;2.67;;;;;;;;;;5056621;28;20239;-51
2023/03/01 14:16:17;;;;;;;2.80;2.13;;;;;;;;;;5058389;28;20229;-52
2023/03/01 14:18:48;;;;;;;2.57;2.07;;;;;;;;;;5055830;28;20219;-52
2023/03/01 14:21:15;;;;;;;2.57;2.37;;;;;;;;;;5054196;28;20675;-52
2023/03/01 14:23:42;;;;;;;4.20;2.30;;;;;;;;;;5060663;28;20682;-52
2023/03/01 14:26:11;;;;;;;4.63;2.13;;;;;;;;;;5061048;28;20231;-52
2023/03/01 14:28:38;;;;;;;3.23;1.80;;;;;;;;;;5062148;28;20333;-53
2023/03/01 14:31:25;;;;;;;2.00;1.80;;;;;;;;;;5061105;28;20309;-52
2023/03/01 14:33:57;;;;;;;4.53;2.27;;;;;;;;;;5060783;28;20230;-53
2023/03/01 14:36:27;;;;;;;3.23;1.87;;;;;;;;;;5058369;28;20251;-53
2023/03/01 14:38:54;;;;;;;3.77;2.20;;;;;;;;;;5063782;28;20223;-52